SAA176 EGKK-EGSS
Flight info
| Callsign | SAA176 |
|---|---|
| Flight time | N/A |
| Altitude | 9000 |
| Route | FRANE DCT DET |
| Aircraft | B77W/H-SDE1E2E3FGHIJ2J3J4J5M1RWXY/LB1D1 |
Departure
| Time | 2026-05-07 21:25 |
|---|---|
| Airport | London Gatwick Airport (EGKK) |
Arrival
| Time | N/A |
|---|---|
| Airport | London Stansted Airport (EGSS) |
| Time | Latitude | Longitude | Altitude | Speed | Heading |
|---|---|---|---|---|---|
| 2026-05-07 20:58 | 51.15101 | -0.19477 | 209 ft | 0 kts | 78° |
| 2026-05-07 21:11 | 51.15097 | -0.19521 | 213 ft | 2 kts | 90° |
| 2026-05-07 21:12 | 51.15099 | -0.19547 | 209 ft | 2 kts | 106° |
| 2026-05-07 21:12 | 51.15106 | -0.19570 | 224 ft | 2 kts | 135° |
| 2026-05-07 21:12 | 51.15119 | -0.19585 | 217 ft | 2 kts | 163° |
| 2026-05-07 21:12 | 51.15125 | -0.19587 | 219 ft | 1 kts | 167° |
| 2026-05-07 21:14 | 51.15121 | -0.19585 | 218 ft | 1 kts | 167° |
| 2026-05-07 21:14 | 51.15110 | -0.19582 | 219 ft | 2 kts | 167° |
| 2026-05-07 21:14 | 51.15094 | -0.19576 | 218 ft | 3 kts | 167° |
| 2026-05-07 21:15 | 51.15080 | -0.19572 | 220 ft | 3 kts | 171° |
| 2026-05-07 21:15 | 51.15056 | -0.19573 | 216 ft | 4 kts | 187° |
| 2026-05-07 21:15 | 51.15032 | -0.19591 | 211 ft | 4 kts | 218° |
| 2026-05-07 21:15 | 51.15014 | -0.19628 | 212 ft | 5 kts | 240° |
| 2026-05-07 21:16 | 51.15002 | -0.19679 | 217 ft | 5 kts | 253° |
| 2026-05-07 21:16 | 51.14992 | -0.19741 | 211 ft | 6 kts | 256° |
| 2026-05-07 21:16 | 51.14980 | -0.19820 | 217 ft | 8 kts | 257° |
| 2026-05-07 21:16 | 51.14967 | -0.19921 | 212 ft | 10 kts | 258° |
| 2026-05-07 21:17 | 51.14951 | -0.20044 | 214 ft | 12 kts | 258° |
| 2026-05-07 21:17 | 51.14932 | -0.20178 | 213 ft | 13 kts | 257° |
| 2026-05-07 21:17 | 51.14912 | -0.20319 | 218 ft | 13 kts | 257° |
| 2026-05-07 21:17 | 51.14896 | -0.20434 | 217 ft | 4 kts | 258° |
| 2026-05-07 21:18 | 51.14890 | -0.20479 | 213 ft | 5 kts | 257° |
| 2026-05-07 21:18 | 51.14882 | -0.20535 | 214 ft | 6 kts | 257° |
| 2026-05-07 21:18 | 51.14873 | -0.20601 | 215 ft | 6 kts | 257° |
| 2026-05-07 21:18 | 51.14863 | -0.20676 | 209 ft | 7 kts | 257° |
| 2026-05-07 21:19 | 51.14851 | -0.20761 | 210 ft | 8 kts | 258° |
| 2026-05-07 21:19 | 51.14839 | -0.20854 | 216 ft | 9 kts | 258° |
| 2026-05-07 21:19 | 51.14826 | -0.20952 | 216 ft | 9 kts | 258° |
| 2026-05-07 21:19 | 51.14812 | -0.21050 | 216 ft | 9 kts | 256° |
| 2026-05-07 21:20 | 51.14793 | -0.21151 | 219 ft | 10 kts | 252° |
| 2026-05-07 21:20 | 51.14773 | -0.21263 | 207 ft | 11 kts | 256° |
| 2026-05-07 21:20 | 51.14741 | -0.21374 | 217 ft | 11 kts | 217° |
| 2026-05-07 21:20 | 51.14665 | -0.21355 | 216 ft | 12 kts | 156° |
| 2026-05-07 21:21 | 51.14657 | -0.21349 | 215 ft | 0 kts | 158° |
| 2026-05-07 21:21 | 51.14654 | -0.21347 | 217 ft | 1 kts | 158° |
| 2026-05-07 21:21 | 51.14647 | -0.21343 | 216 ft | 0 kts | 159° |
| 2026-05-07 21:22 | 51.14646 | -0.21343 | 216 ft | 1 kts | 159° |
| 2026-05-07 21:23 | 51.14641 | -0.21340 | 216 ft | 1 kts | 160° |
| 2026-05-07 21:23 | 51.14635 | -0.21336 | 215 ft | 1 kts | 159° |
| 2026-05-07 21:23 | 51.14624 | -0.21330 | 212 ft | 2 kts | 160° |
| 2026-05-07 21:23 | 51.14603 | -0.21318 | 217 ft | 4 kts | 161° |
| 2026-05-07 21:24 | 51.14580 | -0.21303 | 210 ft | 4 kts | 154° |
| 2026-05-07 21:24 | 51.14551 | -0.21270 | 218 ft | 13 kts | 136° |
| 2026-05-07 21:24 | 51.14545 | -0.20933 | 213 ft | 51 kts | 78° |
| 2026-05-07 21:24 | 51.14699 | -0.19796 | 218 ft | 167 kts | 77° |
| 2026-05-07 21:25 | 51.15020 | -0.17584 | 974 ft | 224 kts | 74° |
| 2026-05-07 21:25 | 51.15577 | -0.15239 | 2839 ft | 229 kts | 69° |
| 2026-05-07 21:25 | 51.16229 | -0.12846 | 4137 ft | 242 kts | 67° |
| 2026-05-07 21:25 | 51.16949 | -0.10329 | 5078 ft | 255 kts | 66° |
| 2026-05-07 21:26 | 51.17715 | -0.07711 | 6104 ft | 265 kts | 65° |
| 2026-05-07 21:26 | 51.18511 | -0.05018 | 7130 ft | 273 kts | 64° |
| 2026-05-07 21:26 | 51.19340 | -0.02229 | 7812 ft | 281 kts | 64° |